Time;durP1;ratioP1;P1;durP2;ratioP2;P2;SDS_P1;SDS_P2;PMS_P1;PMS_P2;Temp;Humidity;BMP_temperature;BMP_pressure;BME280_temperature;BME280_humidity;BME280_pressure;Samples;Min_cycle;Max_cycle;Signal;HPM_P1;HPM_P2
2024/01/16 00:01:04;;;;;;;6.90;4.05;;;;;;;-0.64;100.00;100910.41;5097729;28;20028;-81
2024/01/16 00:03:30;;;;;;;7.32;4.45;;;;;;;-0.61;100.00;100917.22;5092198;28;20432;-81
2024/01/16 00:05:55;;;;;;;6.88;4.40;;;;;;;-0.61;100.00;100906.91;5101453;28;20088;-81
2024/01/16 00:08:21;;;;;;;5.88;5.10;;;;;;;-0.59;100.00;100915.44;5107666;28;20256;-81
2024/01/16 00:10:46;;;;;;;7.60;4.88;;;;;;;-0.57;100.00;100925.75;5088490;28;20062;-81
2024/01/16 00:13:12;;;;;;;12.70;5.43;;;;;;;-0.57;100.00;100926.59;5088729;28;20024;-81
2024/01/16 00:15:37;;;;;;;13.45;5.85;;;;;;;-0.56;100.00;100930.03;5098526;28;20446;-81
2024/01/16 00:18:02;;;;;;;14.18;5.70;;;;;;;-0.57;100.00;100928.31;5106960;28;20028;-82
2024/01/16 00:20:28;;;;;;;8.75;5.40;;;;;;;-0.54;100.00;100928.25;5088726;28;20431;-81
2024/01/16 00:22:53;;;;;;;9.55;5.47;;;;;;;-0.56;100.00;100925.69;5088500;28;20043;-81
2024/01/16 00:25:19;;;;;;;9.15;5.53;;;;;;;-0.55;100.00;100923.97;5102990;28;20053;-81
2024/01/16 00:27:46;;;;;;;6.90;5.40;;;;;;;-0.54;100.00;100923.06;5107448;28;20027;-82
2024/01/16 00:30:11;;;;;;;13.00;5.75;;;;;;;-0.54;100.00;100925.66;5107142;28;20019;-81
2024/01/16 00:32:37;;;;;;;12.48;5.00;;;;;;;-0.54;100.00;100928.25;5099853;28;20023;-81
2024/01/16 00:35:03;;;;;;;8.45;4.63;;;;;;;-0.50;100.00;100929.84;5104179;28;20027;-80
2024/01/16 00:37:29;;;;;;;6.50;4.10;;;;;;;-0.50;100.00;100929.84;5110584;28;20069;-81
2024/01/16 00:39:54;;;;;;;7.97;4.40;;;;;;;-0.48;100.00;100917.75;5108162;28;20023;-81
2024/01/16 00:42:19;;;;;;;10.40;5.10;;;;;;;-0.46;100.00;100921.13;5108952;28;20030;-82
2024/01/16 00:44:45;;;;;;;8.60;4.18;;;;;;;-0.49;100.00;100931.53;5109327;28;20463;-82
2024/01/16 00:47:10;;;;;;;7.88;4.10;;;;;;;-0.45;100.00;100934.00;5096642;28;20414;-82
2024/01/16 00:49:36;;;;;;;8.27;4.25;;;;;;;-0.42;100.00;100933.06;5090098;28;20045;-82
2024/01/16 00:52:02;;;;;;;13.43;3.90;;;;;;;-0.44;100.00;100933.13;5107064;28;20099;-82
2024/01/16 00:54:27;;;;;;;10.52;4.25;;;;;;;-0.44;100.00;100927.09;5084649;28;20067;-81
2024/01/16 00:56:55;;;;;;;11.18;3.88;;;;;;;-0.44;100.00;100919.34;5071285;28;20044;-81
2024/01/16 00:59:20;;;;;;;10.30;3.97;;;;;;;-0.43;100.00;100926.22;5089784;28;20054;-81
2024/01/16 01:01:46;;;;;;;8.63;3.78;;;;;;;-0.42;100.00;100914.97;5094478;28;20055;-81
2024/01/16 01:04:12;;;;;;;8.80;3.92;;;;;;;-0.41;100.00;100916.69;5089131;28;20441;-81
2024/01/16 01:06:37;;;;;;;8.82;4.07;;;;;;;-0.41;100.00;100924.44;5110695;28;20023;-82
2024/01/16 01:09:03;;;;;;;8.70;4.32;;;;;;;-0.39;100.00;100928.69;5102460;28;20492;-83
2024/01/16 01:11:28;;;;;;;8.68;4.75;;;;;;;-0.41;100.00;100927.00;5100198;28;20137;-81
2024/01/16 01:13:53;;;;;;;10.00;4.50;;;;;;;-0.39;100.00;100925.25;5104662;28;20019;-82
2024/01/16 01:16:19;;;;;;;10.65;4.55;;;;;;;-0.41;100.00;100929.59;5092770;28;20049;-82
2024/01/16 01:18:44;;;;;;;8.18;4.28;;;;;;;-0.40;100.00;100926.13;5105879;28;20081;-82
2024/01/16 01:21:09;;;;;;;10.65;4.57;;;;;;;-0.38;100.00;100937.28;5106510;28;20042;-82
2024/01/16 01:23:35;;;;;;;10.90;4.28;;;;;;;-0.39;100.00;100923.53;5104878;28;20360;-82
2024/01/16 01:26:00;;;;;;;8.65;3.88;;;;;;;-0.38;100.00;100929.53;5091515;28;20020;-82
2024/01/16 01:28:26;;;;;;;9.30;4.00;;;;;;;-0.39;100.00;100930.44;5089808;28;20027;-82
2024/01/16 01:30:54;;;;;;;10.48;3.30;;;;;;;-0.38;100.00;100929.53;5107540;28;20143;-82
2024/01/16 01:33:20;;;;;;;12.07;3.80;;;;;;;-0.34;100.00;100915.63;5108085;28;20111;-82
2024/01/16 01:35:45;;;;;;;6.82;3.30;;;;;;;-0.35;100.00;100919.13;5080004;28;20164;-82
2024/01/16 01:38:10;;;;;;;9.75;3.55;;;;;;;-0.35;100.00;100926.88;5106833;28;20019;-82
2024/01/16 01:40:36;;;;;;;8.98;3.88;;;;;;;-0.35;100.00;100922.53;5107228;28;20118;-82
2024/01/16 01:43:19;;;;;;;8.25;4.38;;;;;;;-0.31;100.00;100923.31;5106901;28;20088;-82
2024/01/16 01:45:53;;;;;;;7.90;3.47;;;;;;;-0.33;100.00;100933.69;5088980;28;20039;-82
2024/01/16 01:48:19;;;;;;;8.75;3.83;;;;;;;-0.33;100.00;100928.53;5108368;28;20169;-82
2024/01/16 01:50:44;;;;;;;7.82;4.10;;;;;;;-0.32;100.00;100935.38;5107090;28;20106;-82
2024/01/16 01:53:09;;;;;;;9.63;4.15;;;;;;;-0.35;100.00;100929.44;5093363;28;20467;-82
2024/01/16 01:55:35;;;;;;;8.50;3.70;;;;;;;-0.32;100.00;100929.38;5097077;28;20016;-82
2024/01/16 01:58:04;;;;;;;8.05;3.65;;;;;;;-0.33;100.00;100944.03;5087142;28;20032;-82
2024/01/16 02:00:30;;;;;;;10.15;3.53;;;;;;;-0.29;100.00;100949.13;5070772;28;20028;-82
2024/01/16 02:02:55;;;;;;;7.95;3.50;;;;;;;-0.31;100.00;100946.56;5087231;28;20032;-82
2024/01/16 02:05:21;;;;;;;6.90;3.00;;;;;;;-0.32;100.00;100957.81;5071378;28;20328;-81
2024/01/16 02:07:46;;;;;;;7.38;3.15;;;;;;;-0.31;100.00;100956.91;5098027;28;20020;-81
2024/01/16 02:10:12;;;;;;;7.40;3.40;;;;;;;-0.33;100.00;100949.19;5107554;28;20106;-81
2024/01/16 02:12:37;;;;;;;7.38;3.28;;;;;;;-0.34;100.00;100946.66;5109619;28;20019;-81
2024/01/16 02:15:03;;;;;;;7.97;3.70;;;;;;;-0.32;100.00;100948.31;5090448;28;20064;-81
2024/01/16 02:17:28;;;;;;;7.63;3.60;;;;;;;-0.32;100.00;100957.81;5079140;28;20032;-80
2024/01/16 02:19:54;;;;;;;9.63;3.83;;;;;;;-0.33;100.00;100953.53;5073382;28;20020;-81
2024/01/16 02:22:21;;;;;;;10.80;4.35;;;;;;;-0.35;100.00;100944.97;5109713;28;20024;-81
2024/01/16 02:24:50;;;;;;;10.15;3.53;;;;;;;-0.35;100.00;100943.22;5107985;28;20073;-81
2024/01/16 02:27:16;;;;;;;5.43;3.50;;;;;;;-0.35;100.00;100950.13;5097012;28;20077;-81
2024/01/16 02:29:45;;;;;;;5.68;3.28;;;;;;;-0.36;100.00;100959.63;5070621;28;20329;-81
2024/01/16 02:32:12;;;;;;;5.45;3.78;;;;;;;-0.36;100.00;100959.63;5074491;28;20035;-81
2024/01/16 02:34:38;;;;;;;6.78;4.43;;;;;;;-0.34;100.00;100957.00;5102984;28;20035;-81
2024/01/16 02:37:04;;;;;;;7.57;4.40;;;;;;;-0.35;100.00;100958.72;5106204;28;20361;-81
2024/01/16 02:39:29;;;;;;;8.57;4.30;;;;;;;-0.36;100.00;100954.44;5106298;28;20500;-81
2024/01/16 02:41:55;;;;;;;8.05;4.40;;;;;;;-0.35;100.00;100955.31;5106721;28;20034;-82
2024/01/16 02:44:20;;;;;;;9.15;4.32;;;;;;;-0.36;100.00;100953.59;5109846;28;20468;-80
2024/01/16 02:46:45;;;;;;;8.77;3.72;;;;;;;-0.35;100.00;100950.13;5109761;28;20059;-81
2024/01/16 02:49:11;;;;;;;8.90;3.72;;;;;;;-0.35;100.00;100950.97;5109985;28;20323;-81
2024/01/16 02:51:36;;;;;;;9.20;3.10;;;;;;;-0.34;100.00;100949.25;5086522;28;20012;-82
2024/01/16 02:54:01;;;;;;;8.73;3.33;;;;;;;-0.38;100.00;100937.28;5082945;28;20051;-81
2024/01/16 02:56:27;;;;;;;10.07;3.10;;;;;;;-0.35;100.00;100939.78;5090969;28;20024;-81
2024/01/16 02:58:52;;;;;;;10.60;3.55;;;;;;;-0.34;100.00;100942.34;5090024;28;20024;-81
2024/01/16 03:01:18;;;;;;;9.68;3.20;;;;;;;-0.33;100.00;100940.59;5073449;28;20045;-81
2024/01/16 03:03:43;;;;;;;13.23;4.07;;;;;;;-0.36;100.00;100948.44;5090737;28;20028;-81
2024/01/16 03:06:09;;;;;;;8.65;3.00;;;;;;;-0.36;100.00;100958.78;5089759;28;20495;-82
2024/01/16 03:08:34;;;;;;;9.48;3.50;;;;;;;-0.34;100.00;100957.00;5096200;28;20031;-81
2024/01/16 03:10:59;;;;;;;10.18;3.60;;;;;;;-0.31;100.00;100946.56;5071825;28;20044;-81
2024/01/16 03:13:25;;;;;;;12.90;3.42;;;;;;;-0.31;100.00;100954.31;5109484;28;20118;-81
2024/01/16 03:15:50;;;;;;;12.63;3.30;;;;;;;-0.35;100.00;100939.78;5091688;28;20051;-81
2024/01/16 03:18:16;;;;;;;13.10;3.40;;;;;;;-0.34;100.00;100951.81;5110247;28;20023;-81
2024/01/16 03:20:42;;;;;;;11.57;3.25;;;;;;;-0.35;100.00;100950.13;5093812;28;20118;-81
2024/01/16 03:23:07;;;;;;;13.05;3.10;;;;;;;-0.39;100.00;100959.72;5072803;28;20535;-81
2024/01/16 03:25:38;;;;;;;13.73;3.67;;;;;;;-0.43;100.00;100957.22;5106372;28;20027;-81
2024/01/16 03:28:04;;;;;;;9.52;3.30;;;;;;;-0.45;100.00;100952.09;5091630;28;20024;-81
2024/01/16 03:30:29;;;;;;;9.05;3.03;;;;;;;-0.49;100.00;100954.81;5106616;28;20023;-82
2024/01/16 03:32:55;;;;;;;8.27;3.80;;;;;;;-0.52;100.00;100953.16;5089198;28;21361;-83
2024/01/16 03:35:20;;;;;;;10.82;3.35;;;;;;;-0.51;100.00;100949.69;5076144;28;20379;-82
2024/01/16 03:37:45;;;;;;;7.95;3.90;;;;;;;-0.48;100.00;100951.34;5108424;27;20114;-82
2024/01/16 03:40:12;;;;;;;10.95;4.38;;;;;;;-0.49;100.00;100940.16;5108688;28;20371;-82
2024/01/16 03:42:38;;;;;;;9.02;4.55;;;;;;;-0.54;100.00;100938.59;5096005;28;20425;-82
2024/01/16 03:45:05;;;;;;;12.23;5.65;;;;;;;-0.51;100.00;100935.91;5110807;28;20095;-82
2024/01/16 03:47:30;;;;;;;11.60;7.15;;;;;;;-0.53;100.00;100932.53;5092384;28;20031;-81
2024/01/16 03:49:56;;;;;;;13.23;8.98;;;;;;;-0.51;100.00;100933.31;5096151;28;20032;-81
2024/01/16 03:52:21;;;;;;;21.52;12.30;;;;;;;-0.54;100.00;100925.66;5110123;28;20031;-82
2024/01/16 03:54:46;;;;;;;17.73;11.75;;;;;;;-0.56;100.00;100935.19;5090057;28;20365;-82
2024/01/16 03:57:12;;;;;;;20.58;11.50;;;;;;;-0.58;100.00;100927.47;5107473;28;20444;-81
2024/01/16 03:59:38;;;;;;;19.10;12.35;;;;;;;-0.61;100.00;100926.72;5083802;28;20024;-82
2024/01/16 04:02:03;;;;;;;17.77;11.60;;;;;;;-0.64;100.00;100919.91;5089037;28;20024;-82
2024/01/16 04:04:29;;;;;;;19.30;11.88;;;;;;;-0.65;100.00;100921.63;5089019;28;20020;-81
2024/01/16 04:06:54;;;;;;;18.23;11.70;;;;;;;-0.66;100.00;100925.09;5088670;28;20123;-82
2024/01/16 04:09:20;;;;;;;16.92;12.05;;;;;;;-0.68;100.00;100920.88;5101262;28;20073;-81
2024/01/16 04:11:47;;;;;;;18.48;12.55;;;;;;;-0.71;100.00;100921.81;5093365;28;20474;-82
2024/01/16 04:14:12;;;;;;;22.00;13.10;;;;;;;-0.71;100.00;100911.47;5086602;28;20127;-82
2024/01/16 04:16:38;;;;;;;20.02;13.27;;;;;;;-0.70;100.00;100910.59;5090367;28;20107;-82
2024/01/16 04:19:03;;;;;;;23.67;13.63;;;;;;;-0.75;100.00;100911.59;5087882;28;20442;-82
2024/01/16 04:21:28;;;;;;;19.27;13.35;;;;;;;-0.82;100.00;100908.28;5071204;28;20036;-81
2024/01/16 04:23:54;;;;;;;20.60;13.32;;;;;;;-0.77;100.00;100896.13;5072589;28;20032;-83
2024/01/16 04:26:19;;;;;;;19.63;12.85;;;;;;;-0.86;100.00;100896.34;5095651;28;20047;-83
2024/01/16 04:28:44;;;;;;;21.55;12.93;;;;;;;-0.86;100.00;100896.34;5101834;28;20061;-83
2024/01/16 04:31:11;;;;;;;24.45;13.73;;;;;;;-0.88;100.00;100892.13;5107331;28;20026;-82
2024/01/16 04:33:37;;;;;;;23.45;13.38;;;;;;;-0.87;100.00;100898.97;5109527;28;20028;-82
2024/01/16 04:36:02;;;;;;;22.30;13.13;;;;;;;-0.89;100.00;100891.28;5079128;28;20472;-80
2024/01/16 04:38:28;;;;;;;23.27;12.90;;;;;;;-0.93;100.00;100897.41;5093050;28;20019;-81
2024/01/16 04:40:53;;;;;;;25.33;13.45;;;;;;;-0.95;100.00;100891.44;5109039;28;20383;-81
2024/01/16 04:43:18;;;;;;;22.63;13.27;;;;;;;-0.92;100.00;100886.19;5094983;28;20511;-82
2024/01/16 04:45:44;;;;;;;24.40;13.55;;;;;;;-0.96;100.00;100890.59;5103398;28;20019;-81
2024/01/16 04:48:09;;;;;;;22.10;13.20;;;;;;;-1.03;100.00;100889.06;5091803;28;20106;-81
2024/01/16 04:50:35;;;;;;;23.17;12.82;;;;;;;-0.97;100.00;100895.78;5110561;28;20039;-81
2024/01/16 04:53:01;;;;;;;24.75;13.05;;;;;;;-1.00;100.00;100899.31;5107632;28;20028;-81
2024/01/16 04:55:29;;;;;;;20.80;11.57;;;;;;;-1.02;100.00;100902.81;5091190;28;20035;-81
2024/01/16 04:57:55;;;;;;;19.40;11.60;;;;;;;-0.99;100.00;100910.47;5108256;28;20026;-82
2024/01/16 05:00:21;;;;;;;25.35;11.88;;;;;;;-1.03;100.00;100901.13;5107252;28;20058;-82
2024/01/16 05:02:46;;;;;;;25.83;11.88;;;;;;;-1.07;100.00;100905.53;5099482;28;20077;-82
2024/01/16 05:05:12;;;;;;;19.70;11.23;;;;;;;-1.07;100.00;100896.94;5095215;28;20031;-81
2024/01/16 05:07:37;;;;;;;22.27;11.02;;;;;;;-1.05;100.00;100895.16;5087681;28;20077;-81
2024/01/16 05:10:03;;;;;;;24.90;11.70;;;;;;;-1.08;100.00;100890.06;5106909;28;20023;-81
2024/01/16 05:12:28;;;;;;;21.45;11.88;;;;;;;-1.06;100.00;100893.47;5107924;28;20093;-82
2024/01/16 05:14:54;;;;;;;22.23;11.50;;;;;;;-1.07;100.00;100891.75;5106798;28;20047;-81
2024/01/16 05:17:19;;;;;;;23.88;10.82;;;;;;;-1.12;100.00;100885.88;5107827;28;20039;-82
2024/01/16 05:19:44;;;;;;;21.58;10.45;;;;;;;-1.10;100.00;100881.50;5108450;28;20081;-82
2024/01/16 05:22:10;;;;;;;26.77;11.52;;;;;;;-1.14;100.00;100885.06;5102416;28;20110;-82
2024/01/16 05:24:36;;;;;;;29.67;11.77;;;;;;;-1.17;100.00;100880.81;5095700;28;20589;-82
2024/01/16 05:27:04;;;;;;;24.45;11.32;;;;;;;-1.16;100.00;100881.69;5089647;28;20069;-82
2024/01/16 05:29:31;;;;;;;23.92;11.35;;;;;;;-1.20;100.00;100880.03;5090238;28;20106;-82
2024/01/16 05:31:56;;;;;;;20.15;10.15;;;;;;;-1.21;100.00;100884.34;5106570;28;20024;-81
2024/01/16 05:34:21;;;;;;;22.48;9.95;;;;;;;-1.26;100.00;100881.88;5101902;28;20043;-82
2024/01/16 05:36:49;;;;;;;24.08;9.85;;;;;;;-1.27;100.00;100875.03;5105517;28;20023;-81
2024/01/16 05:39:15;;;;;;;21.27;9.95;;;;;;;-1.31;100.00;100868.25;5106094;28;20057;-81
2024/01/16 05:41:40;;;;;;;22.17;9.77;;;;;;;-1.30;100.00;100875.09;5106090;28;20032;-82
2024/01/16 05:44:05;;;;;;;17.10;9.20;;;;;;;-1.33;100.00;100875.19;5106022;28;20089;-82
2024/01/16 05:46:34;;;;;;;17.05;9.63;;;;;;;-1.34;100.00;100870.06;5100342;28;20035;-82
2024/01/16 05:49:00;;;;;;;22.10;9.25;;;;;;;-1.35;100.00;100876.94;5094369;28;20031;-82
2024/01/16 05:51:27;;;;;;;24.00;9.13;;;;;;;-1.39;100.00;100869.31;5108756;28;20027;-82
2024/01/16 05:53:53;;;;;;;17.98;8.48;;;;;;;-1.42;100.00;100866.81;5108935;28;20077;-82
2024/01/16 05:56:18;;;;;;;18.45;8.45;;;;;;;-1.44;100.00;100868.59;5109487;28;20023;-82
2024/01/16 05:58:44;;;;;;;18.98;9.00;;;;;;;-1.47;100.00;100866.94;5109665;28;20506;-82
2024/01/16 06:01:09;;;;;;;20.85;8.45;;;;;;;-1.53;100.00;100867.09;5104882;28;20038;-82
2024/01/16 06:03:34;;;;;;;17.75;8.63;;;;;;;-1.58;100.00;100861.19;5073519;28;20024;-81
2024/01/16 06:06:00;;;;;;;24.20;9.43;;;;;;;-1.59;100.00;100862.09;5070163;28;20028;-81
2024/01/16 06:08:25;;;;;;;16.90;8.23;;;;;;;-1.63;100.00;100865.59;5102089;28;20104;-81
2024/01/16 06:10:54;;;;;;;19.17;8.73;;;;;;;-1.62;100.00;100867.28;5089198;28;20462;-82
2024/01/16 06:13:19;;;;;;;18.60;8.43;;;;;;;-1.68;100.00;100864.84;5078413;28;20042;-81
2024/01/16 06:15:44;;;;;;;15.32;8.23;;;;;;;-1.66;100.00;100858.78;5084783;28;20124;-81
2024/01/16 06:18:10;;;;;;;20.00;8.30;;;;;;;-1.68;100.00;100849.38;5096245;28;20033;-81
2024/01/16 06:20:35;;;;;;;21.38;8.50;;;;;;;-1.74;100.00;100858.13;5075397;28;20035;-81
2024/01/16 06:23:01;;;;;;;17.42;8.27;;;;;;;-1.75;100.00;100850.41;5078119;28;20044;-81
2024/01/16 06:25:26;;;;;;;21.08;8.60;;;;;;;-1.75;100.00;100851.25;5089591;28;20531;-81
2024/01/16 06:27:52;;;;;;;15.93;7.88;;;;;;;-1.71;100.00;100862.34;5074923;28;20025;-81
2024/01/16 06:30:17;;;;;;;18.10;7.90;;;;;;;-1.81;100.00;100853.13;5078644;28;20110;-81
2024/01/16 06:32:43;;;;;;;13.23;7.30;;;;;;;-1.80;100.00;100850.53;5090277;28;20023;-81
2024/01/16 06:35:08;;;;;;;13.02;7.40;;;;;;;-1.82;100.00;100854.03;5080836;28;20109;-81
2024/01/16 06:37:34;;;;;;;15.80;7.85;;;;;;;-1.84;100.00;100855.78;5070922;28;20035;-81
2024/01/16 06:39:59;;;;;;;19.58;7.47;;;;;;;-1.87;100.00;100856.72;5085573;28;20189;-81
2024/01/16 06:42:24;;;;;;;14.05;7.22;;;;;;;-1.84;100.00;100855.78;5077392;28;20035;-81
2024/01/16 06:44:50;;;;;;;14.48;7.20;;;;;;;-1.88;100.00;100867.06;5069796;28;20570;-81
2024/01/16 06:47:15;;;;;;;14.07;6.78;;;;;;;-1.92;100.00;100855.97;5089578;28;20028;-81
2024/01/16 06:49:40;;;;;;;16.35;7.03;;;;;;;-1.94;100.00;100863.75;5085017;28;20023;-81
2024/01/16 06:52:08;;;;;;;15.40;7.03;;;;;;;-1.91;100.00;100855.94;5082644;28;20020;-81
2024/01/16 06:54:33;;;;;;;20.27;7.40;;;;;;;-1.93;100.00;100862.00;5072116;28;20024;-81
2024/01/16 06:56:58;;;;;;;17.02;7.72;;;;;;;-1.93;100.00;100865.44;5070350;28;20115;-81
2024/01/16 06:59:24;;;;;;;17.58;6.97;;;;;;;-1.93;100.00;100873.16;5077141;28;20067;-81
2024/01/16 07:01:49;;;;;;;16.77;7.53;;;;;;;-1.94;100.00;100866.31;5076091;28;20029;-81
2024/01/16 07:04:14;;;;;;;20.80;6.68;;;;;;;-1.98;100.00;100869.84;5090233;28;20352;-82
2024/01/16 07:06:40;;;;;;;13.88;6.78;;;;;;;-2.00;100.00;100870.72;5083700;28;20488;-82
2024/01/16 07:09:06;;;;;;;19.55;6.72;;;;;;;-1.97;100.00;100876.69;5085444;28;20031;-81
2024/01/16 07:11:31;;;;;;;9.27;3.17;;;;;;;-1.92;100.00;100880.03;5092697;28;20039;-82
2024/01/16 07:13:57;;;;;;;14.75;7.15;;;;;;;-2.01;100.00;100875.03;5103416;28;20031;-82
2024/01/16 07:16:22;;;;;;;15.65;6.53;;;;;;;-2.02;100.00;100877.66;5099592;28;20024;-82
2024/01/16 07:18:48;;;;;;;17.67;7.43;;;;;;;-2.04;100.00;100885.41;5103646;28;20029;-82
2024/01/16 07:21:19;;;;;;;16.92;6.90;;;;;;;-2.07;100.00;100895.81;5109074;28;20047;-81
2024/01/16 07:23:45;;;;;;;12.57;3.47;;;;;;;-1.99;100.00;100890.50;5082959;28;20024;-81
2024/01/16 07:26:10;;;;;;;16.75;7.35;;;;;;;-2.01;100.00;100884.50;5086665;28;20053;-81
2024/01/16 07:28:36;;;;;;;17.55;7.32;;;;;;;-2.04;100.00;100882.84;5087524;28;20024;-81
2024/01/16 07:31:01;;;;;;;14.70;7.03;;;;;;;-2.05;100.00;100886.31;5078299;28;20110;-81
2024/01/16 07:33:27;;;;;;;14.35;6.93;;;;;;;-2.06;100.00;100886.34;5087415;28;20023;-81
2024/01/16 07:35:53;;;;;;;19.90;7.13;;;;;;;-2.06;100.00;100884.59;5106563;28;20097;-81
2024/01/16 07:38:18;;;;;;;13.13;6.63;;;;;;;-2.08;100.00;100890.69;5106672;28;20023;-80
2024/01/16 07:40:44;;;;;;;12.73;6.60;;;;;;;-2.07;100.00;100893.22;5107141;28;20028;-81
2024/01/16 07:43:09;;;;;;;15.18;7.20;;;;;;;-2.07;100.00;100882.06;5103274;28;20117;-80
2024/01/16 07:45:34;;;;;;;15.52;6.80;;;;;;;-2.08;100.00;100878.63;5100136;28;20023;-80
2024/01/16 07:48:00;;;;;;;6.03;3.03;;;;;;;-1.97;100.00;100892.16;5101697;28;20278;-80
2024/01/16 07:50:25;;;;;;;7.43;3.65;;;;;;;-1.97;100.00;100897.31;5107190;28;20027;-81
2024/01/16 07:52:50;;;;;;;13.98;6.90;;;;;;;-2.04;100.00;100889.72;5103705;28;20486;-81
2024/01/16 07:55:18;;;;;;;14.43;6.80;;;;;;;-2.04;100.00;100900.88;5083049;28;20435;-80
2024/01/16 07:57:43;;;;;;;14.43;6.65;;;;;;;-2.06;100.00;100902.66;5083624;28;20810;-80
2024/01/16 08:00:11;;;;;;;11.80;6.88;;;;;;;-1.99;100.00;100900.81;5092339;28;20023;-80
2024/01/16 08:02:37;;;;;;;13.60;6.72;;;;;;;-2.03;100.00;100907.75;5094385;28;20030;-81
2024/01/16 08:05:03;;;;;;;14.75;6.88;;;;;;;-2.04;100.00;100913.78;5110516;28;20023;-81
2024/01/16 08:07:29;;;;;;;18.00;7.28;;;;;;;-2.05;100.00;100908.66;5108983;28;20023;-81
2024/01/16 08:09:54;;;;;;;12.55;7.15;;;;;;;-2.04;100.00;100908.63;5103952;28;20058;-81
2024/01/16 08:12:19;;;;;;;7.70;3.78;;;;;;;-1.96;100.00;100909.34;5109956;28;20085;-81
2024/01/16 08:14:45;;;;;;;7.05;3.45;;;;;;;-1.96;100.00;100908.47;5102325;28;20031;-81
2024/01/16 08:17:10;;;;;;;7.03;2.95;;;;;;;-1.97;100.00;100907.63;5099005;28;20832;-80
2024/01/16 08:19:35;;;;;;;6.65;3.35;;;;;;;-1.94;100.00;100902.41;5092726;28;20081;-80
2024/01/16 08:22:04;;;;;;;12.65;6.72;;;;;;;-1.99;100.00;100909.41;5106027;28;20032;-81
2024/01/16 08:24:31;;;;;;;12.85;6.88;;;;;;;-1.98;100.00;100911.09;5100278;28;20034;-80
2024/01/16 08:26:59;;;;;;;13.43;7.00;;;;;;;-1.99;100.00;100904.25;5090652;28;20028;-81
2024/01/16 08:29:25;;;;;;;16.75;6.63;;;;;;;-1.94;100.00;100917.03;5076221;28;20111;-80
2024/01/16 08:31:53;;;;;;;12.45;6.43;;;;;;;-1.98;100.00;100916.25;5107181;28;20110;-80
2024/01/16 08:34:19;;;;;;;7.50;2.88;;;;;;;-1.89;100.00;100922.94;5106371;28;20027;-81
2024/01/16 08:36:44;;;;;;;15.98;6.75;;;;;;;-1.96;100.00;100923.94;5100845;28;20516;-81
2024/01/16 08:39:10;;;;;;;15.18;6.70;;;;;;;-1.98;100.00;100926.56;5099849;28;20038;-81
2024/01/16 08:41:36;;;;;;;14.35;6.50;;;;;;;-1.95;100.00;100921.34;5100838;28;20068;-80
2024/01/16 08:44:04;;;;;;;15.00;6.78;;;;;;;-1.95;100.00;100921.34;5098932;28;20118;-81
2024/01/16 08:46:29;;;;;;;16.10;7.40;;;;;;;-1.93;100.00;100913.56;5097318;28;20115;-81
2024/01/16 08:48:55;;;;;;;13.80;6.65;;;;;;;-1.93;100.00;100914.41;5101575;28;20118;-81
2024/01/16 08:51:20;;;;;;;14.02;6.85;;;;;;;-1.92;100.00;100917.84;5097174;28;20542;-81
2024/01/16 08:53:46;;;;;;;13.70;6.32;;;;;;;-1.91;100.00;100912.66;5081949;28;20030;-80
2024/01/16 08:56:12;;;;;;;14.40;6.63;;;;;;;-1.87;100.00;100917.75;5107306;27;20035;-81
2024/01/16 08:58:40;;;;;;;16.00;6.82;;;;;;;-1.87;100.00;100918.59;5102172;28;20028;-81
2024/01/16 09:01:05;;;;;;;13.73;6.25;;;;;;;-1.85;100.00;100921.13;5080237;28;20024;-81
2024/01/16 09:03:32;;;;;;;14.75;6.55;;;;;;;-1.84;100.00;100917.66;5100328;28;20024;-81
2024/01/16 09:05:57;;;;;;;12.48;6.03;;;;;;;-1.80;100.00;100914.16;5097438;28;20032;-81
2024/01/16 09:08:23;;;;;;;11.82;6.22;;;;;;;-1.81;100.00;100921.03;5100950;28;20031;-81
2024/01/16 09:10:48;;;;;;;12.88;6.75;;;;;;;-1.75;100.00;100922.63;5098080;28;20506;-81
2024/01/16 09:13:13;;;;;;;12.15;6.60;;;;;;;-1.73;100.00;100926.00;5097258;28;20020;-81
2024/01/16 09:15:39;;;;;;;10.38;6.35;;;;;;;-1.73;100.00;100908.81;5096288;28;20030;-81
2024/01/16 09:18:05;;;;;;;14.50;6.60;;;;;;;-1.66;100.00;100917.25;5100399;28;20084;-80
2024/01/16 09:20:31;;;;;;;12.25;6.13;;;;;;;-1.66;100.00;100915.50;5081750;28;20491;-80
2024/01/16 09:22:56;;;;;;;14.15;6.95;;;;;;;-1.69;100.00;100912.16;5095729;28;20035;-81
2024/01/16 09:25:24;;;;;;;9.95;3.00;;;;;;;-1.60;100.00;100906.81;5095732;28;20030;-81
2024/01/16 09:27:50;;;;;;;6.28;2.75;;;;;;;-1.55;100.00;100919.59;5103155;28;20081;-81
2024/01/16 09:30:16;;;;;;;13.23;6.82;;;;;;;-1.61;100.00;100912.81;5074400;28;20078;-81
2024/01/16 09:32:42;;;;;;;6.93;2.95;;;;;;;-1.50;100.00;100913.44;5108326;28;20102;-81
2024/01/16 09:35:08;;;;;;;15.40;6.60;;;;;;;-1.53;100.00;100913.53;5100737;28;20463;-80
2024/01/16 09:37:35;;;;;;;11.50;3.67;;;;;;;-1.43;100.00;100909.84;5100485;28;20114;-80
2024/01/16 09:40:00;;;;;;;17.05;6.70;;;;;;;-1.45;100.00;100900.44;5103547;28;20030;-80
2024/01/16 09:42:26;;;;;;;13.20;6.53;;;;;;;-1.43;100.00;100894.34;5090070;28;20028;-80
2024/01/16 09:44:55;;;;;;;12.43;6.22;;;;;;;-1.38;100.00;100908.00;5108721;28;20035;-80
2024/01/16 09:47:21;;;;;;;14.75;6.63;;;;;;;-1.33;100.00;100910.47;5097885;28;20396;-81
2024/01/16 09:49:48;;;;;;;11.55;6.70;;;;;;;-1.29;100.00;100907.75;5091590;28;20031;-81
2024/01/16 09:52:13;;;;;;;13.13;7.00;;;;;;;-1.27;100.00;100908.56;5099070;28;20026;-81
2024/01/16 09:54:39;;;;;;;11.00;6.43;;;;;;;-1.23;100.00;100900.75;5095954;28;20123;-80
2024/01/16 09:57:07;;;;;;;14.57;6.38;;;;;;;-1.23;100.00;100905.91;5097696;28;20024;-80
2024/01/16 09:59:35;;;;;;;7.75;3.35;;;;;;;-1.13;100.00;100907.41;5078533;28;20549;-80
2024/01/16 10:02:05;;;;;;;13.70;6.40;;;;;;;-1.19;100.00;100898.09;5111549;28;20480;-81
2024/01/16 10:04:31;;;;;;;11.80;6.43;;;;;;;-1.17;100.00;100890.31;5108831;28;20045;-81
2024/01/16 10:06:58;;;;;;;14.23;6.85;;;;;;;-1.14;100.00;100901.41;5108404;28;20410;-81
2024/01/16 10:09:23;;;;;;;12.43;6.72;;;;;;;-1.12;100.00;100896.19;5080818;28;20024;-81
2024/01/16 10:11:50;;;;;;;13.70;7.03;;;;;;;-1.10;100.00;100897.00;5098025;28;20047;-81
2024/01/16 10:14:17;;;;;;;13.02;6.75;;;;;;;-1.13;100.00;100891.91;5095777;28;20046;-81
2024/01/16 10:16:58;;;;;;;9.63;3.65;;;;;;;-1.00;100.00;100893.28;5105243;28;20027;-81
2024/01/16 10:19:24;;;;;;;5.68;2.90;;;;;;;-0.98;100.00;100891.53;5105638;28;20027;-80
2024/01/16 10:21:51;;;;;;;12.98;4.13;;;;;;;-0.96;100.00;100889.75;5104278;28;20031;-80
2024/01/16 10:24:17;;;;;;;13.40;6.78;;;;;;;-0.99;100.00;100876.91;5100510;28;20042;-80
2024/01/16 10:26:42;;;;;;;15.23;7.63;;;;;;;-0.96;100.00;100869.94;5109979;28;20463;-80
2024/01/16 10:29:09;;;;;;;12.65;7.38;;;;;;;-0.91;100.00;100877.56;5110598;28;20118;-80
2024/01/16 10:31:34;;;;;;;12.05;6.60;;;;;;;-0.85;100.00;100866.22;5103528;28;20110;-80
2024/01/16 10:33:59;;;;;;;13.95;6.88;;;;;;;-0.82;100.00;100861.81;5100769;28;20114;-80
2024/01/16 10:36:25;;;;;;;15.52;6.53;;;;;;;-0.80;100.00;100860.06;5081275;28;20032;-80
2024/01/16 10:39:02;;;;;;;11.50;6.22;;;;;;;-0.77;100.00;100857.41;5091634;28;20036;-80
2024/01/16 10:41:27;;;;;;;12.55;6.80;;;;;;;-0.74;100.00;100853.88;5104650;28;20027;-80
2024/01/16 10:44:07;;;;;;;12.07;6.10;;;;;;;-0.69;100.00;100852.84;5107668;28;20816;-79
2024/01/16 10:46:33;;;;;;;12.65;6.82;;;;;;;-0.67;100.00;100858.84;5095083;28;20019;-80
2024/01/16 10:49:03;;;;;;;14.10;6.63;;;;;;;-0.63;100.00;100857.84;5099387;28;20407;-80
2024/01/16 10:51:30;;;;;;;10.65;6.50;;;;;;;-0.57;100.00;100856.84;5111712;28;20027;-80
2024/01/16 10:54:10;;;;;;;11.80;5.97;;;;;;;-0.55;100.00;100859.38;5100930;28;20028;-80
2024/01/16 10:56:36;;;;;;;12.77;6.10;;;;;;;-0.53;100.00;100855.00;5095880;28;20472;-80
2024/01/16 10:59:39;;;;;;;12.63;6.50;;;;;;;-0.49;100.00;100854.03;5108454;28;20024;-80
2024/01/16 11:02:09;;;;;;;;;;;;;;;-0.40;100.00;100844.28;5088201;28;20106;-80
2024/01/16 11:04:37;;;;;;;9.77;5.65;;;;;;;-0.43;100.00;100843.50;5096527;28;19911;-80